Time;durP1;ratioP1;P1;durP2;ratioP2;P2;SDS_P1;SDS_P2;PMS_P1;PMS_P2;Temp;Humidity;BMP_temperature;BMP_pressure;BME280_temperature;BME280_humidity;BME280_pressure;Samples;Min_cycle;Max_cycle;Signal;HPM_P1;HPM_P2
2023/12/17 00:01:51;;;;;;;6.40;2.60;;;;;;;;;;5012934;28;20033;-83
2023/12/17 00:04:16;;;;;;;7.97;2.83;;;;;;;;;;5012875;28;20269;-81
2023/12/17 00:06:42;;;;;;;8.98;2.70;;;;;;;;;;5011438;28;20022;-84
2023/12/17 00:09:07;;;;;;;9.95;2.95;;;;;;;;;;5013160;28;20022;-83
2023/12/17 00:11:38;;;;;;;6.22;2.67;;;;;;;;;;5011434;28;20483;-82
2023/12/17 00:14:03;;;;;;;8.05;3.15;;;;;;;;;;5013053;28;20018;-82
2023/12/17 00:16:29;;;;;;;6.85;2.83;;;;;;;;;;5011483;28;20036;-83
2023/12/17 00:18:55;;;;;;;11.77;2.75;;;;;;;;;;5010729;28;20053;-81
2023/12/17 00:21:20;;;;;;;7.22;2.72;;;;;;;;;;4995090;28;20036;-81
2023/12/17 00:23:45;;;;;;;9.23;2.55;;;;;;;;;;5012267;28;20041;-81
2023/12/17 00:26:10;;;;;;;9.48;2.60;;;;;;;;;;5012605;28;20022;-83
2023/12/17 00:28:35;;;;;;;8.23;2.65;;;;;;;;;;5012108;28;20026;-83
2023/12/17 00:31:01;;;;;;;5.82;2.88;;;;;;;;;;5010970;28;20083;-82
2023/12/17 00:33:26;;;;;;;9.52;2.92;;;;;;;;;;5010972;28;20010;-81
2023/12/17 00:35:52;;;;;;;7.75;2.60;;;;;;;;;;5012124;28;20139;-83
2023/12/17 00:38:17;;;;;;;11.10;2.95;;;;;;;;;;5012729;28;20106;-82
2023/12/17 00:40:42;;;;;;;9.68;2.50;;;;;;;;;;5012109;28;20025;-84
2023/12/17 00:43:07;;;;;;;6.68;2.55;;;;;;;;;;5012698;28;20026;-82
2023/12/17 00:45:32;;;;;;;7.70;2.60;;;;;;;;;;5012729;28;20045;-82
2023/12/17 00:48:01;;;;;;;10.25;2.88;;;;;;;;;;5012251;28;20265;-82
2023/12/17 00:50:26;;;;;;;15.18;3.20;;;;;;;;;;4994728;28;20090;-83
2023/12/17 00:52:51;;;;;;;6.88;3.15;;;;;;;;;;5011541;28;20061;-83
2023/12/17 00:55:16;;;;;;;8.40;3.33;;;;;;;;;;5010470;28;20339;-83
2023/12/17 00:57:42;;;;;;;9.15;3.08;;;;;;;;;;5011863;28;20057;-82
2023/12/17 01:00:07;;;;;;;7.45;2.42;;;;;;;;;;5011893;28;20026;-83
2023/12/17 01:02:32;;;;;;;9.00;2.60;;;;;;;;;;4994059;28;20473;-83
2023/12/17 01:04:58;;;;;;;5.18;2.20;;;;;;;;;;5010197;28;20026;-81
2023/12/17 01:07:23;;;;;;;10.20;2.72;;;;;;;;;;4994168;28;20480;-82
2023/12/17 01:09:48;;;;;;;5.28;2.50;;;;;;;;;;5009807;28;20034;-81
2023/12/17 01:12:14;;;;;;;5.32;2.30;;;;;;;;;;5011769;28;20161;-82
2023/12/17 01:14:39;;;;;;;7.57;2.17;;;;;;;;;;5011592;28;20419;-81
2023/12/17 01:17:04;;;;;;;10.17;2.40;;;;;;;;;;5011362;28;20022;-80
2023/12/17 01:19:30;;;;;;;6.43;2.30;;;;;;;;;;5010328;28;20283;-81
2023/12/17 01:21:57;;;;;;;7.72;2.50;;;;;;;;;;5011757;28;20014;-82
2023/12/17 01:24:22;;;;;;;7.13;2.20;;;;;;;;;;5012108;28;20026;-82
2023/12/17 01:26:48;;;;;;;4.32;1.98;;;;;;;;;;5011858;28;20056;-85
2023/12/17 01:29:13;;;;;;;11.00;2.17;;;;;;;;;;5010343;28;20029;-78
2023/12/17 01:31:38;;;;;;;7.93;2.10;;;;;;;;;;5011232;28;20022;-81
2023/12/17 01:34:03;;;;;;;7.32;2.28;;;;;;;;;;5009305;28;20810;-81
2023/12/17 01:36:28;;;;;;;4.65;1.83;;;;;;;;;;5011587;28;20080;-81
2023/12/17 01:38:54;;;;;;;4.05;2.03;;;;;;;;;;5010305;28;20061;-82
2023/12/17 01:41:19;;;;;;;5.88;2.00;;;;;;;;;;4993068;28;20029;-81
2023/12/17 01:43:44;;;;;;;5.03;2.00;;;;;;;;;;5009617;28;20418;-81
2023/12/17 01:46:09;;;;;;;6.65;1.83;;;;;;;;;;5009300;28;20072;-81
2023/12/17 01:48:35;;;;;;;7.57;2.17;;;;;;;;;;5009565;28;20036;-81
2023/12/17 01:51:00;;;;;;;8.00;1.80;;;;;;;;;;5009305;28;20026;-82
2023/12/17 01:53:26;;;;;;;6.47;1.77;;;;;;;;;;5009513;28;20117;-81
2023/12/17 01:55:53;;;;;;;8.70;2.05;;;;;;;;;;5009627;28;20163;-84
2023/12/17 01:58:19;;;;;;;7.25;1.80;;;;;;;;;;5010875;28;20125;-82
2023/12/17 02:00:46;;;;;;;6.63;1.65;;;;;;;;;;5009527;28;20454;-82
2023/12/17 02:03:11;;;;;;;7.72;1.83;;;;;;;;;;5010857;28;20040;-80
2023/12/17 02:05:42;;;;;;;12.00;2.33;;;;;;;;;;5009782;28;20486;-81
2023/12/17 02:08:07;;;;;;;5.50;1.70;;;;;;;;;;5011057;28;20026;-81
2023/12/17 02:10:32;;;;;;;8.95;1.75;;;;;;;;;;5010661;28;20379;-83
2023/12/17 02:12:58;;;;;;;11.10;1.95;;;;;;;;;;4992801;28;20411;-83
2023/12/17 02:15:23;;;;;;;11.45;2.05;;;;;;;;;;5009757;28;20441;-82
2023/12/17 02:17:48;;;;;;;4.75;2.00;;;;;;;;;;5009427;28;20034;-83
2023/12/17 02:20:14;;;;;;;10.32;2.05;;;;;;;;;;5009280;28;20057;-83
2023/12/17 02:22:41;;;;;;;12.90;2.78;;;;;;;;;;5010743;28;20427;-82
2023/12/17 02:25:06;;;;;;;6.25;1.90;;;;;;;;;;5009074;28;20041;-80
2023/12/17 02:27:35;;;;;;;9.50;1.90;;;;;;;;;;5010823;28;20026;-82
2023/12/17 02:30:00;;;;;;;7.78;2.00;;;;;;;;;;5008896;28;20053;-82
2023/12/17 02:32:26;;;;;;;5.45;2.20;;;;;;;;;;5009256;28;20085;-82
2023/12/17 02:34:51;;;;;;;10.52;2.13;;;;;;;;;;5008907;28;20505;-81
2023/12/17 02:37:17;;;;;;;9.13;2.10;;;;;;;;;;5010327;28;20022;-82
2023/12/17 02:39:42;;;;;;;10.80;2.80;;;;;;;;;;5008757;28;20387;-81
2023/12/17 02:42:07;;;;;;;8.55;2.17;;;;;;;;;;5008612;28;20101;-82
2023/12/17 02:44:33;;;;;;;9.93;2.40;;;;;;;;;;5009009;28;20512;-82
2023/12/17 02:46:58;;;;;;;14.50;2.45;;;;;;;;;;5009739;28;20068;-82
2023/12/17 02:49:24;;;;;;;11.15;1.98;;;;;;;;;;5010051;28;20489;-82
2023/12/17 02:51:50;;;;;;;14.73;2.85;;;;;;;;;;5013184;28;20021;-81
2023/12/17 02:54:15;;;;;;;9.52;2.05;;;;;;;;;;5012574;28;20411;-82
2023/12/17 02:56:41;;;;;;;14.18;2.60;;;;;;;;;;5013996;28;20085;-82
2023/12/17 02:59:10;;;;;;;9.75;2.10;;;;;;;;;;4996313;28;20026;-80
2023/12/17 03:01:35;;;;;;;10.07;2.13;;;;;;;;;;5012837;28;20022;-83
2023/12/17 03:04:04;;;;;;;11.70;2.47;;;;;;;;;;5012761;28;20105;-82
2023/12/17 03:06:30;;;;;;;12.13;2.30;;;;;;;;;;5014258;28;20062;-79
2023/12/17 03:08:55;;;;;;;17.30;2.78;;;;;;;;;;5014163;28;20084;-81
2023/12/17 03:11:20;;;;;;;17.02;2.45;;;;;;;;;;5012136;28;20335;-82
2023/12/17 03:13:46;;;;;;;12.50;2.45;;;;;;;;;;5013785;28;20052;-81
2023/12/17 03:16:11;;;;;;;10.77;2.30;;;;;;;;;;5012972;28;20085;-82
2023/12/17 03:18:36;;;;;;;16.73;2.73;;;;;;;;;;5013735;28;20125;-83
2023/12/17 03:21:05;;;;;;;9.40;2.63;;;;;;;;;;5013984;28;20249;-81
2023/12/17 03:23:30;;;;;;;18.08;2.55;;;;;;;;;;5013856;28;20022;-83
2023/12/17 03:25:55;;;;;;;11.07;2.45;;;;;;;;;;5014807;28;20033;-83
2023/12/17 03:28:21;;;;;;;6.60;1.98;;;;;;;;;;5011940;28;20199;-83
2023/12/17 03:30:46;;;;;;;14.32;2.42;;;;;;;;;;4995877;28;20053;-81
2023/12/17 03:33:11;;;;;;;15.48;3.03;;;;;;;;;;4995302;28;20208;-82
2023/12/17 03:35:36;;;;;;;12.52;2.55;;;;;;;;;;5013170;28;20135;-81
2023/12/17 03:38:03;;;;;;;13.27;2.33;;;;;;;;;;5012176;28;20060;-83
2023/12/17 03:40:28;;;;;;;12.05;2.63;;;;;;;;;;5012992;28;20021;-81
2023/12/17 03:42:53;;;;;;;16.63;2.67;;;;;;;;;;5011822;28;20095;-83
2023/12/17 03:45:19;;;;;;;10.75;2.45;;;;;;;;;;4995481;28;20041;-82
2023/12/17 03:47:46;;;;;;;18.98;2.67;;;;;;;;;;5013478;28;20109;-81
2023/12/17 03:50:11;;;;;;;13.20;2.65;;;;;;;;;;5012560;28;20030;-82
2023/12/17 03:52:37;;;;;;;11.02;2.30;;;;;;;;;;5012951;28;20473;-83
2023/12/17 03:55:05;;;;;;;13.43;2.17;;;;;;;;;;5011805;28;20516;-82
2023/12/17 03:57:30;;;;;;;7.25;2.28;;;;;;;;;;5011304;28;20037;-81
2023/12/17 03:59:55;;;;;;;10.95;2.17;;;;;;;;;;5012575;28;20026;-82
2023/12/17 04:02:20;;;;;;;8.73;2.10;;;;;;;;;;5010456;28;20140;-81
2023/12/17 04:04:46;;;;;;;19.30;2.83;;;;;;;;;;5012859;28;20272;-83
2023/12/17 04:07:11;;;;;;;13.13;2.43;;;;;;;;;;5012230;28;20026;-83
2023/12/17 04:09:36;;;;;;;9.52;2.08;;;;;;;;;;5012675;28;20265;-80
2023/12/17 04:12:01;;;;;;;15.50;3.53;;;;;;;;;;5011338;28;20069;-80
2023/12/17 04:14:27;;;;;;;17.90;2.63;;;;;;;;;;5012562;28;20033;-83
2023/12/17 04:16:52;;;;;;;13.27;2.40;;;;;;;;;;5012749;28;20109;-83
2023/12/17 04:19:17;;;;;;;15.67;2.90;;;;;;;;;;5012729;28;20026;-83
2023/12/17 04:21:42;;;;;;;13.27;2.88;;;;;;;;;;5012484;28;20259;-83
2023/12/17 04:24:07;;;;;;;9.50;2.90;;;;;;;;;;5012940;28;20125;-83
2023/12/17 04:26:34;;;;;;;13.77;3.65;;;;;;;;;;5011968;28;20018;-81
2023/12/17 04:28:59;;;;;;;22.30;3.75;;;;;;;;;;5012505;28;20077;-82
2023/12/17 04:31:24;;;;;;;17.92;3.92;;;;;;;;;;5012280;28;20053;-82
2023/12/17 04:33:49;;;;;;;15.82;3.20;;;;;;;;;;5010772;28;20041;-82
2023/12/17 04:36:15;;;;;;;12.30;3.47;;;;;;;;;;5011980;28;20044;-84
2023/12/17 04:38:41;;;;;;;12.60;2.95;;;;;;;;;;5011874;28;20372;-81
2023/12/17 04:41:07;;;;;;;12.75;2.92;;;;;;;;;;5011008;28;20594;-82
2023/12/17 04:43:33;;;;;;;17.15;3.60;;;;;;;;;;5012060;28;20097;-80
2023/12/17 04:45:58;;;;;;;11.13;2.85;;;;;;;;;;5010383;28;20030;-80
2023/12/17 04:48:23;;;;;;;23.17;3.78;;;;;;;;;;5010475;28;20034;-82
2023/12/17 04:50:48;;;;;;;28.50;4.05;;;;;;;;;;5011841;28;20036;-82
2023/12/17 04:53:14;;;;;;;21.27;3.75;;;;;;;;;;5010637;28;20463;-82
2023/12/17 04:55:39;;;;;;;17.47;3.80;;;;;;;;;;5010081;28;20499;-82
2023/12/17 04:58:04;;;;;;;22.20;4.00;;;;;;;;;;5011845;28;20749;-80
2023/12/17 05:00:29;;;;;;;20.17;4.50;;;;;;;;;;5011591;28;20129;-82
2023/12/17 05:02:55;;;;;;;25.00;4.68;;;;;;;;;;5010476;28;20109;-82
2023/12/17 05:05:22;;;;;;;30.90;6.13;;;;;;;;;;5011179;28;20030;-83
2023/12/17 05:07:48;;;;;;;41.25;7.57;;;;;;;;;;5011849;28;20033;-81
2023/12/17 05:10:13;;;;;;;24.35;6.85;;;;;;;;;;5011572;28;20024;-81
2023/12/17 05:12:38;;;;;;;22.52;6.43;;;;;;;;;;5009899;28;20370;-80
2023/12/17 05:15:04;;;;;;;28.08;6.60;;;;;;;;;;5010640;28;20034;-83
2023/12/17 05:17:31;;;;;;;24.90;6.55;;;;;;;;;;4993583;28;20316;-83
2023/12/17 05:19:56;;;;;;;22.30;6.95;;;;;;;;;;5010367;28;20026;-82
2023/12/17 05:22:21;;;;;;;27.98;7.93;;;;;;;;;;5011035;28;20336;-84
2023/12/17 05:24:48;;;;;;;31.88;8.23;;;;;;;;;;5010335;28;20025;-83
2023/12/17 05:27:13;;;;;;;43.40;9.27;;;;;;;;;;5010031;28;20025;-82
2023/12/17 05:29:39;;;;;;;30.48;7.80;;;;;;;;;;5010777;28;20280;-84
2023/12/17 05:32:04;;;;;;;24.23;7.57;;;;;;;;;;5010172;28;20029;-83
2023/12/17 05:34:29;;;;;;;26.48;7.38;;;;;;;;;;5010622;28;20058;-84
2023/12/17 05:36:54;;;;;;;29.35;7.47;;;;;;;;;;5009960;28;20128;-82
2023/12/17 05:39:20;;;;;;;21.33;7.35;;;;;;;;;;5011172;28;20021;-80
2023/12/17 05:41:45;;;;;;;34.88;7.35;;;;;;;;;;5010609;28;20022;-83
2023/12/17 05:44:10;;;;;;;30.35;8.35;;;;;;;;;;5009678;28;20470;-82
2023/12/17 05:46:35;;;;;;;33.53;8.75;;;;;;;;;;5010610;28;20512;-83
2023/12/17 05:49:01;;;;;;;23.93;7.80;;;;;;;;;;5010842;28;20064;-82
2023/12/17 05:51:26;;;;;;;28.52;7.43;;;;;;;;;;5010657;28;20297;-81
2023/12/17 05:53:51;;;;;;;24.02;7.05;;;;;;;;;;5010894;28;20022;-81
2023/12/17 05:56:17;;;;;;;26.67;5.88;;;;;;;;;;5009508;28;20034;-82
2023/12/17 05:58:43;;;;;;;28.80;6.55;;;;;;;;;;5010546;28;20108;-81
2023/12/17 06:01:08;;;;;;;20.45;6.15;;;;;;;;;;5011124;28;20461;-81
2023/12/17 06:03:34;;;;;;;22.23;6.40;;;;;;;;;;5010548;28;20022;-83
2023/12/17 06:05:59;;;;;;;22.05;6.38;;;;;;;;;;5009492;28;20484;-80
2023/12/17 06:08:25;;;;;;;28.50;6.70;;;;;;;;;;5009269;28;20029;-83
2023/12/17 06:10:50;;;;;;;28.73;6.53;;;;;;;;;;5008918;28;20024;-83
2023/12/17 06:13:15;;;;;;;24.48;6.78;;;;;;;;;;5009167;28;20067;-81
2023/12/17 06:15:40;;;;;;;29.73;8.15;;;;;;;;;;5009106;28;20362;-80
2023/12/17 06:18:06;;;;;;;23.90;5.88;;;;;;;;;;5009387;28;20041;-81
2023/12/17 06:20:31;;;;;;;17.88;5.88;;;;;;;;;;5009129;28;20021;-82
2023/12/17 06:22:56;;;;;;;21.27;5.57;;;;;;;;;;5010363;28;20438;-81
2023/12/17 06:25:22;;;;;;;25.50;5.45;;;;;;;;;;5008998;28;20049;-80
2023/12/17 06:27:48;;;;;;;21.73;5.85;;;;;;;;;;5010306;28;20030;-82
2023/12/17 06:30:13;;;;;;;27.15;5.30;;;;;;;;;;4992709;28;20400;-83
2023/12/17 06:32:38;;;;;;;23.50;5.82;;;;;;;;;;5009958;28;20033;-80
2023/12/17 06:35:05;;;;;;;20.25;5.18;;;;;;;;;;5010286;28;20057;-82
2023/12/17 06:37:32;;;;;;;16.27;5.95;;;;;;;;;;5010157;28;20045;-80
2023/12/17 06:39:57;;;;;;;23.75;6.13;;;;;;;;;;5009369;28;20080;-80
2023/12/17 06:42:22;;;;;;;20.60;6.88;;;;;;;;;;5010785;28;20030;-80
2023/12/17 06:44:47;;;;;;;23.33;8.48;;;;;;;;;;5008769;28;20029;-80
2023/12/17 06:47:15;;;;;;;28.63;8.40;;;;;;;;;;5010073;28;20232;-81
2023/12/17 06:49:40;;;;;;;20.02;7.90;;;;;;;;;;5008640;28;20172;-82
2023/12/17 06:52:05;;;;;;;27.92;8.75;;;;;;;;;;5010157;28;20034;-83
2023/12/17 06:54:31;;;;;;;28.55;9.75;;;;;;;;;;5008684;28;20034;-81
2023/12/17 06:56:56;;;;;;;27.67;9.93;;;;;;;;;;5009135;28;20115;-82
2023/12/17 06:59:22;;;;;;;27.92;10.40;;;;;;;;;;5008729;28;20378;-82
2023/12/17 07:01:47;;;;;;;28.30;10.90;;;;;;;;;;5008470;28;20034;-81
2023/12/17 07:04:12;;;;;;;33.45;12.60;;;;;;;;;;5009956;28;20065;-80
2023/12/17 07:06:37;;;;;;;28.63;12.53;;;;;;;;;;5009614;28;20037;-83
2023/12/17 07:09:03;;;;;;;26.05;12.20;;;;;;;;;;5008648;28;20268;-82
2023/12/17 07:11:28;;;;;;;30.60;13.68;;;;;;;;;;5010114;28;20029;-80
2023/12/17 07:13:54;;;;;;;38.03;16.33;;;;;;;;;;5007919;28;20034;-82
2023/12/17 07:16:22;;;;;;;27.58;15.35;;;;;;;;;;5009859;28;20034;-81
2023/12/17 07:18:48;;;;;;;34.53;16.35;;;;;;;;;;5009201;28;20052;-80
2023/12/17 07:21:13;;;;;;;41.50;16.55;;;;;;;;;;5008735;28;20435;-81
2023/12/17 07:23:38;;;;;;;33.45;16.30;;;;;;;;;;5009505;28;20407;-83
2023/12/17 07:26:04;;;;;;;27.90;14.90;;;;;;;;;;5008629;28;20065;-82
2023/12/17 07:28:29;;;;;;;39.33;15.73;;;;;;;;;;5009729;28;20022;-81
2023/12/17 07:30:54;;;;;;;29.75;13.82;;;;;;;;;;5009736;28;20029;-81
2023/12/17 07:33:19;;;;;;;32.20;13.30;;;;;;;;;;5008390;28;20067;-81
2023/12/17 07:35:45;;;;;;;27.80;12.82;;;;;;;;;;5007839;28;20054;-83
2023/12/17 07:38:10;;;;;;;20.88;12.10;;;;;;;;;;5011295;28;20083;-82
2023/12/17 07:40:35;;;;;;;24.58;13.23;;;;;;;;;;5013507;28;20331;-81
2023/12/17 07:43:01;;;;;;;23.50;11.60;;;;;;;;;;5011538;28;20065;-82
2023/12/17 07:45:26;;;;;;;24.67;11.32;;;;;;;;;;5013262;28;20420;-82
2023/12/17 07:47:51;;;;;;;33.33;11.20;;;;;;;;;;5012887;28;20347;-82
2023/12/17 07:50:16;;;;;;;23.00;11.23;;;;;;;;;;5012181;28;20417;-81
2023/12/17 07:52:41;;;;;;;24.67;10.83;;;;;;;;;;5011730;28;20453;-81
2023/12/17 07:55:07;;;;;;;22.10;10.27;;;;;;;;;;5013609;28;20848;-82
2023/12/17 07:57:33;;;;;;;18.95;10.52;;;;;;;;;;5013252;28;20388;-81
2023/12/17 07:59:58;;;;;;;21.40;10.52;;;;;;;;;;5012474;28;20052;-80
2023/12/17 08:02:24;;;;;;;21.17;9.57;;;;;;;;;;5012790;28;20038;-80
2023/12/17 08:04:50;;;;;;;20.90;9.63;;;;;;;;;;5011230;28;20489;-82
2023/12/17 08:07:15;;;;;;;17.67;9.20;;;;;;;;;;5011519;28;20033;-82
2023/12/17 08:09:41;;;;;;;16.13;8.98;;;;;;;;;;5012572;28;20018;-83
2023/12/17 08:12:06;;;;;;;19.65;9.27;;;;;;;;;;5012864;28;20033;-80
2023/12/17 08:14:35;;;;;;;25.77;8.73;;;;;;;;;;5011232;28;20030;-80
2023/12/17 08:17:00;;;;;;;18.75;9.25;;;;;;;;;;5010757;28;20351;-81
2023/12/17 08:19:26;;;;;;;22.70;7.95;;;;;;;;;;5011206;28;20093;-81
2023/12/17 08:21:51;;;;;;;17.45;8.27;;;;;;;;;;5010333;28;20129;-79
2023/12/17 08:24:16;;;;;;;21.58;8.55;;;;;;;;;;5012507;28;20037;-79
2023/12/17 08:26:42;;;;;;;23.90;8.48;;;;;;;;;;5012436;28;20160;-79
2023/12/17 08:29:07;;;;;;;22.00;8.23;;;;;;;;;;5011751;28;20343;-80
2023/12/17 08:31:33;;;;;;;17.58;8.38;;;;;;;;;;5012119;28;20712;-80
2023/12/17 08:33:58;;;;;;;19.98;7.97;;;;;;;;;;5012204;28;20107;-79
2023/12/17 08:36:27;;;;;;;20.67;8.60;;;;;;;;;;5011766;28;20418;-79
2023/12/17 08:38:53;;;;;;;20.10;7.85;;;;;;;;;;4995136;28;20136;-78
2023/12/17 08:41:18;;;;;;;29.20;8.93;;;;;;;;;;5012616;28;20164;-80
2023/12/17 08:43:45;;;;;;;18.80;8.30;;;;;;;;;;5012223;28;20029;-81
2023/12/17 08:46:11;;;;;;;23.52;8.57;;;;;;;;;;5010780;28;20121;-79
2023/12/17 08:48:36;;;;;;;18.15;8.98;;;;;;;;;;5011830;28;20458;-78
2023/12/17 08:51:04;;;;;;;21.35;10.40;;;;;;;;;;5010382;28;20021;-77
2023/12/17 08:53:30;;;;;;;20.77;9.73;;;;;;;;;;4994852;28;20196;-79
2023/12/17 08:55:55;;;;;;;17.60;9.73;;;;;;;;;;5011383;28;20244;-80
2023/12/17 08:58:20;;;;;;;21.05;9.07;;;;;;;;;;5012256;28;20331;-78
2023/12/17 09:00:45;;;;;;;24.60;10.15;;;;;;;;;;5012232;28;20403;-79
2023/12/17 09:03:11;;;;;;;18.58;9.95;;;;;;;;;;5010152;28;20583;-80
2023/12/17 09:05:38;;;;;;;20.52;9.25;;;;;;;;;;5011857;28;20022;-77
2023/12/17 09:08:03;;;;;;;22.70;9.88;;;;;;;;;;4990760;28;20022;-81
2023/12/17 09:10:29;;;;;;;18.10;10.10;;;;;;;;;;4987807;28;20503;-80
2023/12/17 09:12:54;;;;;;;22.35;10.25;;;;;;;;;;4987652;28;20089;-84
2023/12/17 09:15:20;;;;;;;23.58;11.45;;;;;;;;;;4987796;28;20451;-78
2023/12/17 09:17:48;;;;;;;22.67;11.32;;;;;;;;;;4989609;28;20033;-79
2023/12/17 09:20:16;;;;;;;27.92;11.20;;;;;;;;;;4988647;28;20101;-82
2023/12/17 09:22:41;;;;;;;21.45;11.13;;;;;;;;;;4989151;28;20497;-80
2023/12/17 09:25:07;;;;;;;21.77;11.85;;;;;;;;;;4989300;28;20022;-82
2023/12/17 09:27:35;;;;;;;22.85;12.15;;;;;;;;;;4988975;28;20106;-79
2023/12/17 09:30:00;;;;;;;29.05;12.25;;;;;;;;;;4986985;28;20432;-79
2023/12/17 09:32:26;;;;;;;25.02;12.45;;;;;;;;;;4989162;28;20080;-78
2023/12/17 09:34:51;;;;;;;22.70;11.77;;;;;;;;;;4987274;28;20212;-79
2023/12/17 09:37:17;;;;;;;24.15;11.95;;;;;;;;;;4988915;28;20335;-80
2023/12/17 09:39:42;;;;;;;24.60;12.10;;;;;;;;;;4989158;28;20101;-82
2023/12/17 09:42:07;;;;;;;22.08;13.30;;;;;;;;;;4986874;28;20023;-81
2023/12/17 09:44:32;;;;;;;26.33;13.45;;;;;;;;;;4988933;28;20081;-80
2023/12/17 09:46:58;;;;;;;23.92;13.57;;;;;;;;;;4970844;28;20527;-80
2023/12/17 09:49:23;;;;;;;30.58;14.48;;;;;;;;;;4989128;28;20026;-81
2023/12/17 09:51:55;;;;;;;23.35;13.98;;;;;;;;;;4989129;28;20131;-80
2023/12/17 09:54:20;;;;;;;28.10;13.60;;;;;;;;;;4988236;28;20105;-78
2023/12/17 09:56:48;;;;;;;25.50;12.57;;;;;;;;;;4989030;28;20137;-79
2023/12/17 09:59:13;;;;;;;20.27;12.50;;;;;;;;;;4988573;28;20038;-78
2023/12/17 10:01:39;;;;;;;27.65;12.98;;;;;;;;;;4988222;28;20037;-80
2023/12/17 10:04:04;;;;;;;19.83;11.88;;;;;;;;;;4988396;28;20109;-79
2023/12/17 10:06:31;;;;;;;25.20;11.47;;;;;;;;;;4988162;28;20548;-78
2023/12/17 10:08:58;;;;;;;26.08;11.65;;;;;;;;;;4988678;28;20279;-78
2023/12/17 10:11:24;;;;;;;19.63;10.85;;;;;;;;;;4988989;28;20034;-79
2023/12/17 10:13:49;;;;;;;27.75;10.95;;;;;;;;;;4988788;28;20021;-79
2023/12/17 10:16:14;;;;;;;21.50;10.65;;;;;;;;;;4986446;28;20485;-76
2023/12/17 10:18:39;;;;;;;18.25;10.77;;;;;;;;;;4987720;28;20388;-78
2023/12/17 10:21:07;;;;;;;24.20;11.80;;;;;;;;;;4986244;28;20026;-78
2023/12/17 10:23:49;;;;;;;25.40;12.20;;;;;;;;;;4988477;28;20280;-77
2023/12/17 10:26:14;;;;;;;21.27;10.82;;;;;;;;;;4992272;28;20062;-78
2023/12/17 10:28:44;;;;;;;28.00;11.70;;;;;;;;;;5004071;28;20068;-79
2023/12/17 10:31:10;;;;;;;32.97;11.98;;;;;;;;;;5006676;28;20045;-78
2023/12/17 10:33:38;;;;;;;23.00;11.73;;;;;;;;;;5009190;28;20056;-78
2023/12/17 10:36:04;;;;;;;25.00;11.68;;;;;;;;;;5006483;28;20108;-77
2023/12/17 10:38:30;;;;;;;29.20;12.27;;;;;;;;;;5009780;28;20435;-78
2023/12/17 10:40:56;;;;;;;31.85;12.20;;;;;;;;;;5009441;28;20033;-78
2023/12/17 10:43:22;;;;;;;30.67;11.63;;;;;;;;;;5007720;28;20029;-79
2023/12/17 10:45:49;;;;;;;24.67;11.18;;;;;;;;;;5008542;28;20026;-77
2023/12/17 10:48:15;;;;;;;30.48;11.32;;;;;;;;;;5007961;28;20040;-77
2023/12/17 10:50:41;;;;;;;24.83;11.35;;;;;;;;;;5008731;28;20108;-77
2023/12/17 10:53:07;;;;;;;28.77;11.88;;;;;;;;;;5009288;28;20100;-80
2023/12/17 10:55:34;;;;;;;30.27;12.07;;;;;;;;;;5009582;28;20036;-77
2023/12/17 10:58:03;;;;;;;28.02;12.52;;;;;;;;;;5010387;28;20069;-78
2023/12/17 11:00:30;;;;;;;24.95;12.18;;;;;;;;;;5009707;28;20442;-77
2023/12/17 11:02:58;;;;;;;34.08;11.70;;;;;;;;;;5008897;28;20018;-77
2023/12/17 11:05:24;;;;;;;26.40;12.40;;;;;;;;;;5009060;28;20454;-79
2023/12/17 11:07:49;;;;;;;31.10;11.93;;;;;;;;;;5009533;28;20014;-78
2023/12/17 11:10:17;;;;;;;25.98;11.38;;;;;;;;;;5009484;28;20037;-78
2023/12/17 11:12:44;;;;;;;25.70;11.15;;;;;;;;;;5011977;28;20026;-78
2023/12/17 11:15:11;;;;;;;30.02;10.52;;;;;;;;;;5008763;28;20462;-78
2023/12/17 11:17:36;;;;;;;30.05;11.23;;;;;;;;;;5012786;28;20118;-79
2023/12/17 11:20:02;;;;;;;29.33;11.55;;;;;;;;;;5013402;28;20104;-78
2023/12/17 11:22:28;;;;;;;20.38;11.00;;;;;;;;;;5009262;28;20104;-79
2023/12/17 11:24:54;;;;;;;28.80;11.52;;;;;;;;;;5011148;28;20462;-79
2023/12/17 11:27:22;;;;;;;25.75;11.48;;;;;;;;;;5011548;28;20030;-78
2023/12/17 11:29:47;;;;;;;28.65;11.13;;;;;;;;;;5012882;28;20096;-78
2023/12/17 11:32:13;;;;;;;29.70;11.55;;;;;;;;;;5010700;28;20030;-76
2023/12/17 11:34:39;;;;;;;27.92;11.50;;;;;;;;;;5011671;28;20058;-78
2023/12/17 11:37:04;;;;;;;28.58;11.25;;;;;;;;;;5012586;28;20343;-78
2023/12/17 11:39:30;;;;;;;27.90;11.27;;;;;;;;;;5011672;28;20026;-76
2023/12/17 11:41:55;;;;;;;26.75;11.50;;;;;;;;;;5011117;28;20021;-78
2023/12/17 11:44:21;;;;;;;25.10;10.30;;;;;;;;;;5012095;28;20037;-77
2023/12/17 11:46:47;;;;;;;27.85;11.20;;;;;;;;;;5012111;28;20072;-78
2023/12/17 11:49:13;;;;;;;26.38;9.55;;;;;;;;;;5011376;28;20419;-79
2023/12/17 11:51:39;;;;;;;25.20;10.00;;;;;;;;;;5012107;28;20033;-78
2023/12/17 11:54:04;;;;;;;24.33;10.82;;;;;;;;;;5012144;28;20033;-76
2023/12/17 11:56:30;;;;;;;24.73;10.00;;;;;;;;;;5010313;28;20046;-79
2023/12/17 11:58:55;;;;;;;17.85;8.48;;;;;;;;;;5011855;28;20076;-76
2023/12/17 12:01:20;;;;;;;20.08;8.50;;;;;;;;;;5010953;28;20057;-77
2023/12/17 12:03:48;;;;;;;21.65;8.10;;;;;;;;;;5011635;28;20342;-77
2023/12/17 12:06:14;;;;;;;22.40;8.32;;;;;;;;;;5011247;28;20036;-76
2023/12/17 12:08:41;;;;;;;24.50;8.27;;;;;;;;;;5011079;28;20026;-81
2023/12/17 12:11:06;;;;;;;18.98;8.05;;;;;;;;;;5011724;28;20088;-76
2023/12/17 12:13:35;;;;;;;23.05;8.60;;;;;;;;;;5010641;28;20369;-77
2023/12/17 12:16:00;;;;;;;21.48;7.80;;;;;;;;;;5011344;28;20040;-80
2023/12/17 12:18:26;;;;;;;18.33;7.78;;;;;;;;;;4993052;28;20034;-80
2023/12/17 12:20:53;;;;;;;19.25;7.18;;;;;;;;;;5009679;28;20044;-80
2023/12/17 12:23:18;;;;;;;19.58;6.03;;;;;;;;;;5010114;28;20133;-79
2023/12/17 12:25:43;;;;;;;16.77;5.70;;;;;;;;;;5011423;28;20114;-84
2023/12/17 12:28:19;;;;;;;20.90;5.80;;;;;;;;;;5010180;28;20141;-76
2023/12/17 12:30:44;;;;;;;18.33;5.20;;;;;;;;;;5010067;28;20533;-80
2023/12/17 12:33:20;;;;;;;18.83;5.47;;;;;;;;;;5012032;28;20022;-78
2023/12/17 12:35:46;;;;;;;16.55;4.97;;;;;;;;;;5005268;28;20473;-81
2023/12/17 12:38:18;;;;;;;13.85;5.10;;;;;;;;;;5009386;28;20147;-80
2023/12/17 12:40:43;;;;;;;17.40;4.35;;;;;;;;;;5007150;28;20069;-80
2023/12/17 12:43:09;;;;;;;15.55;4.30;;;;;;;;;;5011632;28;20038;-79
2023/12/17 12:45:35;;;;;;;12.73;4.13;;;;;;;;;;5009410;28;20630;-80
2023/12/17 12:48:02;;;;;;;16.80;4.45;;;;;;;;;;4986624;28;20191;-79
2023/12/17 12:50:28;;;;;;;23.52;4.60;;;;;;;;;;5004869;28;20022;-82
2023/12/17 12:52:53;;;;;;;10.30;4.03;;;;;;;;;;5009993;28;20068;-79
2023/12/17 12:55:18;;;;;;;11.98;4.03;;;;;;;;;;5010344;28;20227;-80
2023/12/17 12:57:45;;;;;;;15.63;4.05;;;;;;;;;;5011259;28;20577;-77
2023/12/17 13:00:11;;;;;;;14.73;4.07;;;;;;;;;;5010683;28;20026;-77
2023/12/17 13:02:37;;;;;;;16.45;4.88;;;;;;;;;;5009106;28;20104;-79
2023/12/17 13:05:03;;;;;;;14.63;4.03;;;;;;;;;;5010566;28;20567;-79
2023/12/17 13:07:28;;;;;;;19.33;4.07;;;;;;;;;;5010519;28;20105;-78
2023/12/17 13:09:53;;;;;;;18.52;3.65;;;;;;;;;;5008733;28;20105;-82
2023/12/17 13:12:19;;;;;;;15.20;3.35;;;;;;;;;;5009849;28;20037;-80
2023/12/17 13:14:44;;;;;;;13.02;3.53;;;;;;;;;;5009635;28;20072;-77
2023/12/17 13:17:09;;;;;;;11.83;3.63;;;;;;;;;;5010697;28;20036;-79
2023/12/17 13:19:34;;;;;;;15.88;3.30;;;;;;;;;;5009816;28;20562;-78
2023/12/17 13:22:00;;;;;;;12.23;3.10;;;;;;;;;;5009922;28;20062;-78
2023/12/17 13:24:25;;;;;;;16.77;4.00;;;;;;;;;;5009383;28;20121;-77
2023/12/17 13:26:50;;;;;;;10.93;3.47;;;;;;;;;;5010605;28;20026;-77
2023/12/17 13:29:15;;;;;;;16.75;3.20;;;;;;;;;;5010869;28;20411;-76
2023/12/17 13:31:41;;;;;;;15.77;3.50;;;;;;;;;;5009901;28;20049;-78
2023/12/17 13:34:06;;;;;;;13.55;3.67;;;;;;;;;;5009374;28;20427;-77
2023/12/17 13:36:32;;;;;;;15.83;3.23;;;;;;;;;;5008467;28;20033;-80
2023/12/17 13:38:57;;;;;;;14.00;3.85;;;;;;;;;;5010522;28;20329;-79
2023/12/17 13:41:23;;;;;;;15.50;3.53;;;;;;;;;;5009168;28;20139;-78
2023/12/17 13:43:48;;;;;;;11.23;3.07;;;;;;;;;;5010426;28;20080;-77
2023/12/17 13:46:14;;;;;;;11.65;3.17;;;;;;;;;;5008870;28;20606;-76
2023/12/17 13:48:40;;;;;;;11.63;3.88;;;;;;;;;;5009540;28;20037;-77
2023/12/17 13:51:05;;;;;;;10.57;3.38;;;;;;;;;;5010617;28;20040;-78
2023/12/17 13:53:30;;;;;;;12.98;3.90;;;;;;;;;;5009727;28;20459;-77
2023/12/17 13:55:55;;;;;;;9.65;3.25;;;;;;;;;;5010373;28;20030;-78
2023/12/17 13:58:21;;;;;;;14.23;3.80;;;;;;;;;;5010532;28;20022;-77
2023/12/17 14:00:46;;;;;;;18.70;3.65;;;;;;;;;;5008255;28;20276;-75
2023/12/17 14:03:12;;;;;;;17.85;4.15;;;;;;;;;;5012880;28;20078;-78
2023/12/17 14:05:38;;;;;;;12.73;3.33;;;;;;;;;;5009753;28;20399;-78
2023/12/17 14:08:03;;;;;;;12.10;3.17;;;;;;;;;;5008921;28;20102;-77
2023/12/17 14:10:29;;;;;;;16.55;3.40;;;;;;;;;;5008282;28;20022;-78
2023/12/17 14:12:54;;;;;;;14.57;3.63;;;;;;;;;;5008478;28;20038;-80
2023/12/17 14:15:23;;;;;;;11.32;3.33;;;;;;;;;;5009452;28;20102;-79
2023/12/17 14:17:49;;;;;;;10.20;3.08;;;;;;;;;;5009835;28;20108;-79
2023/12/17 14:20:15;;;;;;;17.30;3.92;;;;;;;;;;5010134;28;20470;-79